createdAt,value
2023-04-16T00:01:19.551Z,33.28
2023-04-16T00:03:48.200Z,31.17
2023-04-16T00:06:17.016Z,33.75
2023-04-16T00:08:46.596Z,31.02
2023-04-16T00:11:15.201Z,32.72
2023-04-16T00:13:43.426Z,35.72
2023-04-16T00:16:11.821Z,35.47
2023-04-16T00:18:40.248Z,32.03
2023-04-16T00:21:09.187Z,29.30
2023-04-16T00:23:38.065Z,29.10
2023-04-16T00:26:08.089Z,29.45
2023-04-16T00:28:36.632Z,32.78
2023-04-16T00:31:05.215Z,33.08
2023-04-16T00:33:33.704Z,30.35
2023-04-16T00:36:02.221Z,31.90
2023-04-16T00:38:32.541Z,31.17
2023-04-16T00:41:01.128Z,28.27
2023-04-16T00:43:31.817Z,29.15
2023-04-16T00:46:00.428Z,27.13
2023-04-16T00:48:28.951Z,25.95
2023-04-16T00:50:57.403Z,27.20
2023-04-16T00:53:25.781Z,26.02
2023-04-16T00:55:56.168Z,24.63
2023-04-16T00:58:24.565Z,26.27
2023-04-16T01:00:54.514Z,24.08
2023-04-16T01:03:22.829Z,25.92
2023-04-16T01:05:52.014Z,25.45
2023-04-16T01:08:22.095Z,28.02
2023-04-16T01:10:50.683Z,27.80
2023-04-16T01:13:18.872Z,22.48
2023-04-16T01:15:47.550Z,18.15
2023-04-16T01:18:17.725Z,25.02
2023-04-16T01:20:48.156Z,25.27
2023-04-16T01:23:18.550Z,28.50
2023-04-16T01:25:47.037Z,33.45
2023-04-16T01:28:15.239Z,31.73
2023-04-16T01:30:43.689Z,29.13
2023-04-16T01:33:12.489Z,28.95
2023-04-16T01:35:41.153Z,30.55
2023-04-16T01:38:11.246Z,29.67
2023-04-16T01:40:39.806Z,36.40
2023-04-16T01:43:07.978Z,34.72
2023-04-16T01:45:36.691Z,40.42
2023-04-16T01:48:05.452Z,42.55
2023-04-16T01:50:34.067Z,42.67
2023-04-16T01:53:05.237Z,42.45
2023-04-16T01:55:35.684Z,43.03
2023-04-16T01:58:03.909Z,41.38
2023-04-16T02:00:32.357Z,39.70
2023-04-16T02:03:00.838Z,36.95
2023-04-16T02:05:29.403Z,40.60
2023-04-16T02:07:57.471Z,36.55
2023-04-16T02:10:26.007Z,33.78
2023-04-16T02:12:55.488Z,33.95
2023-04-16T02:15:25.431Z,28.65
2023-04-16T02:17:56.951Z,26.17
2023-04-16T02:20:25.764Z,26.23
2023-04-16T02:22:54.177Z,24.52
2023-04-16T02:25:23.224Z,25.33
2023-04-16T02:27:51.418Z,25.73
2023-04-16T02:30:21.458Z,22.83
2023-04-16T02:32:49.870Z,23.73
2023-04-16T02:35:18.280Z,24.70
2023-04-16T02:37:46.442Z,23.63
2023-04-16T02:40:15.130Z,26.45
2023-04-16T02:42:43.506Z,26.58
2023-04-16T02:45:12.650Z,23.95
2023-04-16T02:47:42.242Z,22.63
2023-04-16T02:50:11.336Z,24.95
2023-04-16T02:52:39.582Z,24.00
2023-04-16T02:55:08.823Z,24.65
2023-04-16T02:57:36.933Z,26.05
2023-04-16T03:00:06.412Z,25.33
2023-04-16T03:02:34.666Z,26.27
2023-04-16T03:05:04.915Z,29.52
2023-04-16T03:07:32.997Z,26.88
2023-04-16T03:10:01.583Z,26.55
2023-04-16T03:12:29.734Z,30.48
2023-04-16T03:14:59.015Z,31.35
2023-04-16T03:17:27.177Z,28.85
2023-04-16T03:19:55.671Z,33.38
2023-04-16T03:22:25.299Z,35.03
2023-04-16T03:24:53.714Z,36.65
2023-04-16T03:27:21.874Z,33.65
2023-04-16T03:29:50.449Z,44.03
2023-04-16T03:32:18.841Z,40.70
2023-04-16T03:34:47.249Z,45.33
2023-04-16T03:37:15.355Z,44.35
2023-04-16T03:39:45.219Z,45.67
2023-04-16T03:42:13.497Z,46.13
2023-04-16T03:44:41.940Z,43.65
2023-04-16T03:47:10.096Z,46.85
2023-04-16T03:49:38.558Z,48.90
2023-04-16T03:52:06.906Z,47.75
2023-04-16T03:54:35.522Z,47.20
2023-04-16T03:57:05.383Z,48.22
2023-04-16T03:59:33.871Z,49.53
2023-04-16T04:02:02.159Z,49.60
2023-04-16T04:04:30.711Z,53.42
2023-04-16T04:06:59.057Z,49.83
2023-04-16T04:09:27.536Z,46.05
2023-04-16T04:11:55.636Z,48.35
2023-04-16T04:14:25.528Z,43.65
2023-04-16T04:16:53.634Z,44.88
2023-04-16T04:19:22.100Z,49.65
2023-04-16T04:21:50.184Z,48.47
2023-04-16T04:24:18.603Z,61.70
2023-04-16T04:26:47.068Z,57.47
2023-04-16T04:29:15.737Z,57.95
2023-04-16T04:31:45.886Z,60.92
2023-04-16T04:34:14.343Z,50.88
2023-04-16T04:36:42.518Z,48.92
2023-04-16T04:39:11.220Z,47.35
2023-04-16T04:41:39.526Z,42.47
2023-04-16T04:44:07.970Z,40.70
2023-04-16T04:46:36.209Z,39.80
2023-04-16T04:49:06.347Z,41.85
2023-04-16T04:51:34.762Z,38.90
2023-04-16T04:54:03.286Z,39.88
2023-04-16T04:56:31.504Z,38.40
2023-04-16T04:58:59.866Z,42.63
2023-04-16T05:01:27.974Z,51.65
2023-04-16T05:03:56.595Z,74.47
2023-04-16T05:06:28.381Z,69.22
2023-04-16T05:08:58.235Z,65.85
2023-04-16T05:11:26.359Z,55.30
2023-04-16T05:13:54.801Z,52.75
2023-04-16T05:16:22.978Z,41.10
2023-04-16T05:18:51.823Z,44.13
2023-04-16T05:21:19.986Z,38.85
2023-04-16T05:23:49.845Z,32.25
2023-04-16T05:26:18.038Z,37.45
2023-04-16T05:28:46.786Z,33.60
2023-04-16T05:31:15.132Z,34.08
2023-04-16T05:33:43.595Z,30.92
2023-04-16T05:36:11.767Z,33.00
2023-04-16T05:38:40.142Z,32.53
2023-04-16T05:41:09.774Z,31.23
2023-04-16T05:43:38.266Z,33.17
2023-04-16T05:46:06.579Z,30.60
2023-04-16T05:48:34.956Z,29.80
2023-04-16T05:51:03.441Z,30.20
2023-04-16T05:53:31.989Z,29.05
2023-04-16T05:56:00.162Z,27.38
2023-04-16T05:58:29.929Z,29.50
2023-04-16T06:00:58.144Z,28.45
2023-04-16T06:03:26.614Z,26.02
2023-04-16T06:05:54.828Z,28.42
2023-04-16T06:08:23.487Z,23.02
2023-04-16T06:10:51.671Z,23.02
2023-04-16T06:13:20.252Z,20.90
2023-04-16T06:15:49.822Z,17.75
2023-04-16T06:18:18.280Z,15.40
2023-04-16T06:20:46.556Z,16.25
2023-04-16T06:23:15.784Z,13.73
2023-04-16T06:25:43.922Z,13.63
2023-04-16T06:28:12.372Z,10.10
2023-04-16T06:30:42.728Z,12.70
2023-04-16T06:33:13.955Z,12.45
2023-04-16T06:35:42.285Z,11.18
2023-04-16T06:38:10.870Z,11.60
2023-04-16T06:40:39.193Z,10.50
2023-04-16T06:43:08.320Z,10.20
2023-04-16T06:45:36.498Z,10.63
2023-04-16T06:48:05.548Z,11.57
2023-04-16T06:50:35.510Z,11.13
2023-04-16T06:53:04.179Z,12.10
2023-04-16T06:55:32.494Z,12.70
2023-04-16T06:58:01.077Z,13.70
2023-04-16T07:00:29.302Z,13.85
2023-04-16T07:02:58.588Z,12.45
2023-04-16T07:05:27.148Z,16.85
2023-04-16T07:07:57.816Z,14.18
2023-04-16T07:10:26.520Z,13.32
2023-04-16T07:16:24.950Z,13.13
2023-04-16T07:18:54.106Z,10.20
2023-04-16T07:21:23.564Z,11.80
2023-04-16T07:23:53.590Z,9.77
2023-04-16T07:26:23.068Z,10.27
2023-04-16T07:28:51.669Z,8.90
2023-04-16T07:31:20.043Z,9.50
2023-04-16T07:33:48.676Z,8.77
2023-04-16T07:36:16.842Z,7.60
2023-04-16T07:38:45.600Z,8.82
2023-04-16T07:41:15.971Z,8.45
2023-04-16T07:43:46.981Z,11.43
2023-04-16T07:46:15.229Z,11.85
2023-04-16T07:48:44.184Z,7.13
2023-04-16T07:51:12.674Z,7.10
2023-04-16T07:53:42.294Z,9.57
2023-04-16T07:56:10.727Z,12.57
2023-04-16T07:58:40.981Z,10.20
2023-04-16T08:01:09.442Z,7.10
2023-04-16T08:03:38.328Z,9.63
2023-04-16T08:06:07.164Z,6.53
2023-04-16T08:08:35.811Z,7.07
2023-04-16T08:11:04.118Z,8.43
2023-04-16T08:13:33.626Z,6.53
2023-04-16T08:16:04.209Z,7.53
2023-04-16T08:18:32.930Z,8.18
2023-04-16T08:21:01.619Z,9.00
2023-04-16T08:23:30.327Z,7.63
2023-04-16T08:25:58.563Z,7.93
2023-04-16T08:28:27.208Z,7.90
2023-04-16T08:30:55.912Z,6.82
2023-04-16T08:33:25.899Z,6.65
2023-04-16T08:35:54.211Z,7.47
2023-04-16T08:38:22.887Z,7.35
2023-04-16T08:40:51.452Z,7.28
2023-04-16T08:43:20.691Z,7.20
2023-04-16T08:45:49.101Z,6.38
2023-04-16T08:48:20.770Z,7.00
2023-04-16T08:50:55.441Z,7.57
2023-04-16T08:53:32.604Z,9.25
2023-04-16T08:56:01.660Z,8.02
2023-04-16T08:58:32.447Z,6.82
2023-04-16T09:01:00.941Z,5.63
2023-04-16T09:03:30.083Z,6.72
2023-04-16T09:06:00.392Z,7.30
2023-04-16T09:08:29.107Z,9.45
2023-04-16T09:10:58.029Z,10.45
2023-04-16T09:13:26.791Z,8.45
2023-04-16T09:15:57.286Z,10.32
2023-04-16T09:20:56.416Z,9.15
2023-04-16T09:25:55.735Z,7.80
2023-04-16T09:28:44.008Z,7.63
2023-04-16T09:31:13.980Z,8.20
2023-04-16T09:33:43.074Z,4.63
2023-04-16T09:36:12.096Z,3.42
2023-04-16T09:38:48.978Z,4.00
2023-04-16T09:41:17.851Z,4.75
2023-04-16T09:43:57.777Z,4.00
2023-04-16T09:46:26.941Z,5.53
2023-04-16T09:48:55.567Z,7.55
2023-04-16T09:51:24.934Z,4.53
2023-04-16T09:53:55.582Z,3.58
2023-04-16T09:56:26.502Z,3.13
2023-04-16T09:58:59.453Z,3.92
2023-04-16T10:01:27.882Z,3.28
2023-04-16T10:03:56.978Z,3.15
2023-04-16T10:06:27.503Z,2.50
2023-04-16T10:08:57.889Z,3.10
2023-04-16T10:13:55.398Z,3.28
2023-04-16T10:16:24.162Z,3.53
2023-04-16T10:21:29.072Z,3.33
2023-04-16T10:24:04.022Z,4.75
2023-04-16T10:26:33.277Z,3.95
2023-04-16T10:29:02.231Z,4.63
2023-04-16T10:31:30.697Z,4.88
2023-04-16T10:33:59.800Z,5.45
2023-04-16T10:36:28.252Z,4.32
2023-04-16T10:39:01.397Z,3.60
2023-04-16T10:41:30.528Z,3.50
2023-04-16T10:44:09.718Z,3.45
2023-04-16T10:46:39.882Z,5.20
2023-04-16T10:49:15.218Z,4.68
2023-04-16T10:51:43.641Z,5.15
2023-04-16T10:54:25.939Z,3.63
2023-04-16T10:56:55.589Z,5.20
2023-04-16T10:59:25.213Z,3.72
2023-04-16T11:01:54.866Z,2.78
2023-04-16T11:04:34.461Z,3.72
2023-04-16T11:07:07.675Z,3.45
2023-04-16T11:09:54.595Z,3.65
2023-04-16T11:12:27.857Z,3.42
2023-04-16T11:15:00.921Z,3.15
2023-04-16T11:17:31.000Z,3.30
2023-04-16T11:20:00.235Z,3.35
2023-04-16T11:22:29.207Z,3.28
2023-04-16T11:24:59.781Z,3.47
2023-04-16T11:27:28.280Z,3.80
2023-04-16T11:30:01.987Z,2.40
2023-04-16T11:32:32.860Z,2.22
2023-04-16T11:35:03.997Z,2.45
2023-04-16T11:37:36.029Z,2.80
2023-04-16T11:40:08.439Z,2.33
2023-04-16T11:42:38.099Z,2.05
2023-04-16T11:45:08.268Z,2.90
2023-04-16T11:47:45.910Z,5.40
2023-04-16T11:50:19.958Z,3.38
2023-04-16T11:52:48.622Z,3.95
2023-04-16T11:55:19.161Z,3.83
2023-04-16T11:57:47.724Z,3.40
2023-04-16T12:00:17.178Z,3.97
2023-04-16T12:02:47.120Z,4.70
2023-04-16T12:05:30.971Z,4.32
2023-04-16T12:08:00.339Z,3.53
2023-04-16T12:10:30.801Z,4.72
2023-04-16T12:13:11.877Z,4.75
2023-04-16T12:15:48.526Z,7.55
2023-04-16T12:18:17.694Z,6.65
2023-04-16T12:20:47.579Z,4.68
2023-04-16T12:23:26.894Z,6.45
2023-04-16T12:25:59.844Z,4.57
2023-04-16T12:28:30.004Z,4.75
2023-04-16T12:30:58.620Z,4.25
2023-04-16T12:33:27.010Z,5.43
2023-04-16T12:35:55.613Z,5.18
2023-04-16T12:38:24.703Z,9.23
2023-04-16T12:40:56.887Z,5.15
2023-04-16T12:43:26.932Z,6.47
2023-04-16T12:45:55.605Z,5.35
2023-04-16T12:48:23.906Z,4.28
2023-04-16T12:50:54.970Z,4.63
2023-04-16T12:53:23.142Z,6.95
2023-04-16T12:55:51.680Z,4.72
2023-04-16T12:58:20.070Z,5.03
2023-04-16T13:00:50.021Z,4.20
2023-04-16T13:03:18.523Z,3.33
2023-04-16T13:05:47.186Z,3.20
2023-04-16T13:08:15.636Z,3.92
2023-04-16T13:10:44.431Z,4.13
2023-04-16T13:13:12.722Z,4.05
2023-04-16T13:15:41.406Z,5.38
2023-04-16T13:18:11.122Z,5.88
2023-04-16T13:20:40.101Z,5.07
2023-04-16T13:23:08.923Z,4.15
2023-04-16T13:25:37.966Z,4.03
2023-04-16T13:28:06.491Z,4.60
2023-04-16T13:30:35.283Z,5.38
2023-04-16T13:33:03.790Z,5.03
2023-04-16T13:35:33.882Z,4.82
2023-04-16T13:38:02.452Z,5.80
2023-04-16T13:40:31.162Z,7.75
2023-04-16T13:42:59.467Z,4.88
2023-04-16T13:45:28.210Z,5.00
2023-04-16T13:47:56.964Z,5.65
2023-04-16T13:50:25.780Z,6.28
2023-04-16T13:52:56.536Z,6.68
2023-04-16T13:55:25.402Z,4.50
2023-04-16T13:57:53.881Z,3.97
2023-04-16T14:00:22.800Z,4.93
2023-04-16T14:02:51.231Z,4.63
2023-04-16T14:05:20.804Z,5.03
2023-04-16T14:07:49.056Z,4.05
2023-04-16T14:10:19.468Z,13.63
2023-04-16T14:12:47.740Z,6.75
2023-04-16T14:15:16.298Z,5.78
2023-04-16T14:17:45.571Z,6.07
2023-04-16T14:20:15.748Z,6.28
2023-04-16T14:22:44.993Z,4.78
2023-04-16T14:25:13.688Z,3.65
2023-04-16T14:27:43.301Z,4.60
2023-04-16T14:30:12.413Z,4.20
2023-04-16T14:32:40.843Z,4.93
2023-04-16T14:35:10.451Z,4.30
2023-04-16T14:37:39.107Z,3.90
2023-04-16T14:40:09.920Z,3.40
2023-04-16T14:42:38.902Z,5.18
2023-04-16T14:45:10.367Z,5.18
2023-04-16T14:47:45.916Z,5.88
2023-04-16T14:50:15.758Z,6.50
2023-04-16T14:52:44.226Z,7.60
2023-04-16T14:55:12.671Z,5.68
2023-04-16T14:57:41.659Z,7.20
2023-04-16T15:00:13.705Z,7.90
2023-04-16T15:02:42.540Z,6.47
2023-04-16T15:05:11.630Z,6.05
2023-04-16T15:07:41.306Z,6.55
2023-04-16T15:10:10.853Z,8.68
2023-04-16T15:12:39.294Z,6.90
2023-04-16T15:15:12.136Z,7.53
2023-04-16T15:17:40.732Z,7.88
2023-04-16T15:20:10.766Z,6.10
2023-04-16T15:22:39.537Z,6.75
2023-04-16T15:25:09.095Z,5.22
2023-04-16T15:27:37.669Z,6.72
2023-04-16T15:30:07.554Z,7.28
2023-04-16T15:32:37.298Z,11.45
2023-04-16T15:35:06.428Z,9.30
2023-04-16T15:37:34.677Z,7.80
2023-04-16T15:40:05.564Z,7.32
2023-04-16T15:42:33.840Z,6.23
2023-04-16T15:45:02.318Z,6.18
2023-04-16T15:47:30.676Z,6.03
2023-04-16T15:50:00.683Z,8.40
2023-04-16T15:52:29.132Z,11.73
2023-04-16T15:54:57.654Z,10.65
2023-04-16T15:57:26.028Z,11.60
2023-04-16T16:00:06.392Z,8.82
2023-04-16T16:02:38.434Z,9.52
2023-04-16T16:05:10.797Z,10.13
2023-04-16T16:07:39.130Z,6.90
2023-04-16T16:10:08.996Z,7.88
2023-04-16T16:12:37.960Z,7.00
2023-04-16T16:15:07.727Z,9.48
2023-04-16T16:17:36.256Z,7.78
2023-04-16T16:20:10.449Z,9.73
2023-04-16T16:22:40.723Z,8.30
2023-04-16T16:25:10.435Z,8.50
2023-04-16T16:27:38.751Z,8.52
2023-04-16T16:30:08.885Z,7.30
2023-04-16T16:32:40.220Z,9.60
2023-04-16T16:35:09.808Z,8.75
2023-04-16T16:37:39.984Z,8.80
2023-04-16T16:40:09.528Z,8.20
2023-04-16T16:42:37.859Z,8.07
2023-04-16T16:45:07.045Z,9.32
2023-04-16T16:47:35.386Z,8.27
2023-04-16T16:50:05.496Z,9.05
2023-04-16T16:52:34.690Z,11.38
2023-04-16T16:55:04.645Z,13.30
2023-04-16T16:57:33.002Z,9.63
2023-04-16T17:00:01.557Z,10.20
2023-04-16T17:02:29.905Z,10.77
2023-04-16T17:05:00.327Z,10.20
2023-04-16T17:07:28.624Z,10.88
2023-04-16T17:09:58.134Z,11.23
2023-04-16T17:12:29.434Z,9.80
2023-04-16T17:14:58.003Z,12.70
2023-04-16T17:17:28.170Z,11.68
2023-04-16T17:19:56.669Z,11.23
2023-04-16T17:22:24.862Z,11.13
2023-04-16T17:24:53.383Z,10.10
2023-04-16T17:27:21.819Z,10.75
2023-04-16T17:29:53.011Z,10.20
2023-04-16T17:32:21.509Z,12.77
2023-04-16T17:34:50.306Z,21.65
2023-04-16T17:37:18.754Z,18.95
2023-04-16T17:39:47.336Z,12.15
2023-04-16T17:42:15.569Z,12.85
2023-04-16T17:44:44.165Z,13.55
2023-04-16T17:47:13.873Z,16.67
2023-04-16T17:49:45.268Z,11.80
2023-04-16T17:52:13.531Z,15.98
2023-04-16T17:54:42.183Z,17.77
2023-04-16T17:57:10.536Z,15.48
2023-04-16T17:59:39.149Z,13.55
2023-04-16T18:02:07.609Z,17.60
2023-04-16T18:04:38.027Z,26.58
2023-04-16T18:07:06.793Z,28.60
2023-04-16T18:09:35.869Z,21.92
2023-04-16T18:12:04.210Z,18.08
2023-04-16T18:14:32.858Z,17.23
2023-04-16T18:17:02.636Z,14.82
2023-04-16T18:19:32.893Z,14.60
2023-04-16T18:22:02.593Z,14.75
2023-04-16T18:24:33.326Z,13.27
2023-04-16T18:27:01.655Z,14.27
2023-04-16T18:29:33.552Z,14.85
2023-04-16T18:32:04.134Z,20.45
2023-04-16T18:34:33.314Z,18.10
2023-04-16T18:37:03.330Z,21.38
2023-04-16T18:39:33.915Z,22.98
2023-04-16T18:42:03.396Z,17.23
2023-04-16T18:44:31.898Z,19.30
2023-04-16T18:47:00.289Z,21.60
2023-04-16T18:49:28.875Z,20.80
2023-04-16T18:51:57.213Z,22.90
2023-04-16T18:54:27.682Z,24.15
2023-04-16T18:56:57.311Z,21.05
2023-04-16T18:59:26.698Z,24.70
2023-04-16T19:01:55.030Z,27.83
2023-04-16T19:04:23.777Z,28.80
2023-04-16T19:06:51.968Z,26.27
2023-04-16T19:09:20.551Z,27.80
2023-04-16T19:11:50.739Z,32.67
2023-04-16T19:14:19.406Z,36.17
2023-04-16T19:16:47.774Z,28.95
2023-04-16T19:19:16.402Z,32.25
2023-04-16T19:21:44.663Z,27.13
2023-04-16T19:24:13.288Z,26.55
2023-04-16T19:26:41.517Z,32.83
2023-04-16T19:29:11.894Z,30.92
2023-04-16T19:31:40.266Z,29.35
2023-04-16T19:34:08.991Z,26.88
2023-04-16T19:36:37.276Z,25.73
2023-04-16T19:39:06.314Z,25.77
2023-04-16T19:41:34.981Z,27.98
2023-04-16T19:44:03.602Z,22.02
2023-04-16T19:46:33.350Z,26.17
2023-04-16T19:49:01.958Z,24.38
2023-04-16T19:51:30.409Z,24.33
2023-04-16T19:53:59.786Z,21.55
2023-04-16T19:56:28.081Z,26.27
2023-04-16T19:58:56.867Z,25.73
2023-04-16T20:01:25.434Z,27.35
2023-04-16T20:03:55.790Z,34.25
2023-04-16T20:06:24.240Z,29.80
2023-04-16T20:08:52.862Z,30.10
2023-04-16T20:11:21.400Z,31.00
2023-04-16T20:13:50.233Z,27.60
2023-04-16T20:16:22.872Z,32.47
2023-04-16T20:18:54.437Z,26.80
2023-04-16T20:23:53.824Z,27.77
2023-04-16T20:26:24.080Z,27.95
2023-04-16T20:28:52.969Z,27.13
2023-04-16T20:31:21.829Z,26.05
2023-04-16T20:33:50.373Z,28.25
2023-04-16T20:36:18.647Z,31.38
2023-04-16T20:38:48.686Z,31.05
2023-04-16T20:41:21.511Z,34.17
2023-04-16T20:43:52.923Z,28.55
2023-04-16T20:46:24.452Z,29.85
2023-04-16T20:48:53.073Z,28.02
2023-04-16T20:51:21.627Z,26.95
2023-04-16T20:53:52.283Z,25.75
2023-04-16T20:56:20.698Z,26.55
2023-04-16T20:58:49.208Z,26.40
2023-04-16T21:01:18.461Z,23.92
2023-04-16T21:03:47.248Z,32.83
2023-04-16T21:06:17.939Z,29.02
2023-04-16T21:08:46.718Z,29.15
2023-04-16T21:11:16.289Z,30.25
2023-04-16T21:13:44.868Z,29.00
2023-04-16T21:16:13.369Z,25.52
2023-04-16T21:18:42.098Z,26.38
2023-04-16T21:21:10.400Z,23.60
2023-04-16T21:23:39.318Z,23.80
2023-04-16T21:26:07.571Z,22.27
2023-04-16T21:28:37.838Z,22.13
2023-04-16T21:31:06.184Z,23.58
2023-04-16T21:33:34.741Z,22.27
2023-04-16T21:36:02.932Z,21.13
2023-04-16T21:38:31.554Z,23.77
2023-04-16T21:40:59.721Z,23.70
2023-04-16T21:43:29.149Z,22.55
2023-04-16T21:45:58.920Z,22.05
2023-04-16T21:48:28.600Z,22.17
2023-04-16T21:50:58.116Z,22.88
2023-04-16T21:53:28.147Z,21.63
2023-04-16T21:55:56.619Z,20.63
2023-04-16T21:58:26.801Z,21.40
2023-04-16T22:00:55.165Z,18.42
2023-04-16T22:03:26.532Z,14.65
2023-04-16T22:08:27.258Z,13.32
2023-04-16T22:10:59.107Z,17.80
2023-04-16T22:13:27.978Z,15.57
2023-04-16T22:15:56.436Z,15.77
2023-04-16T22:18:26.559Z,13.68
2023-04-16T22:20:55.802Z,16.52
2023-04-16T22:23:24.615Z,13.57
2023-04-16T22:25:56.760Z,16.33
2023-04-16T22:28:25.403Z,15.57
2023-04-16T22:30:53.527Z,15.02
2023-04-16T22:33:22.026Z,16.45
2023-04-16T22:35:51.525Z,15.10
2023-04-16T22:38:20.050Z,15.52
2023-04-16T22:40:48.550Z,13.43
2023-04-16T22:43:17.790Z,13.90
2023-04-16T22:45:47.297Z,13.80
2023-04-16T22:48:16.502Z,14.85
2023-04-16T22:50:48.746Z,13.90
2023-04-16T22:53:18.686Z,15.18
2023-04-16T22:55:46.823Z,13.02
2023-04-16T22:58:16.822Z,14.98
2023-04-16T23:00:45.228Z,16.60
2023-04-16T23:03:13.737Z,14.82
2023-04-16T23:05:41.828Z,15.35
2023-04-16T23:08:10.359Z,14.35
2023-04-16T23:10:40.053Z,14.57
2023-04-16T23:13:08.531Z,14.10
2023-04-16T23:15:36.724Z,14.77
2023-04-16T23:18:05.368Z,14.57
2023-04-16T23:20:33.693Z,14.85
2023-04-16T23:23:02.084Z,14.68
2023-04-16T23:25:30.256Z,14.38
2023-04-16T23:28:00.164Z,14.60
2023-04-16T23:30:28.414Z,13.93
2023-04-16T23:32:56.984Z,14.32
2023-04-16T23:35:25.574Z,16.17
2023-04-16T23:37:54.003Z,13.88
2023-04-16T23:40:22.180Z,15.23
2023-04-16T23:42:50.795Z,14.52
2023-04-16T23:45:20.372Z,16.90
2023-04-16T23:47:51.134Z,14.80
2023-04-16T23:50:19.388Z,14.93
2023-04-16T23:52:49.037Z,14.20
2023-04-16T23:55:17.198Z,13.85
2023-04-16T23:57:45.647Z,15.35
